Aviation Digital Data Service (ADDS)

Output produced by METARs form (0455 UTC 16 February 2019)
found at http://www.aviationweather.gov/metar/data/
 
Forecast for: WAOO (SYAMSUDIN NOOR , ID)
Text: TAF WAOO 152300Z 1600/1624 34006KT 9999 SCT018
Forecast period: 0000 UTC 16 February 2019 to 0000 UTC 17 February 2019
Forecast type: FROM: standard forecast or significant change
Winds: from the NNW (340 degrees) at 7 MPH (6 knots; 3.1 m/s)
Visibility: 6 or more miles 10+ km)
Ceiling: at least 12,000 feet AGL
Clouds: scattered clouds at 1800 feet AGL
Weather: no significant weather forecast for this period
Text: TEMPO 1608/1612 22008KT 6000 TSRA FEW016CB
Forecast period: 0800 to 1200 UTC 16 February 2019
Forecast type: TEMPORARY: The following changes expected for less than half the time period
Winds: from the SW (220 degrees) at 9 MPH (8 knots; 4.1 m/s)
Visibility: 4 miles (6 km)
Ceiling: at least 12,000 feet AGL
Clouds: few clouds at 1600 feet AGL
Weather: TSRA  (rain associated with thunderstorm(s))